Altitude, Mississippi
Current Conditions -  °F | °C
As of 7:35 PM on Thursday 18 Dec 2014 (Local Time) from KCRX Reporting Station
Overcast Overcast  
Wind Chill: 41°   Ceiling: 3600
Heat Index: 45°   Visibility: 10mi
Dew Point: 37°   Wind: 6mph
Humidity: 76%   Direction: 30°NNE
Pressure: 30.21"   Gusts: NA
Location:  34.6741°N, 88.5234°W
Report Text: KCRX 190135Z AUTO 03005KT 10SM OVC036 07/03 A3021 RMK AO2
Loading
Personal Weather Stations






























Interactive Weather Map New forecast layout! Learn more

10-Day Weather Forecast

Advertisements
Track Severe Weather on mobile